Time;durP1;ratioP1;P1;durP2;ratioP2;P2;SDS_P1;SDS_P2;PMS_P1;PMS_P2;Temp;Humidity;BMP_temperature;BMP_pressure;BME280_temperature;BME280_humidity;BME280_pressure;Samples;Min_cycle;Max_cycle;Signal;HPM_P1;HPM_P2
2023/01/08 00:00:42;;;;;;;;;;;9.10;99.90;;;;;;4861405;29;20012;-73
2023/01/08 00:03:08;;;;;;;;;;;9.10;99.90;;;;;;4839828;29;19967;-73
2023/01/08 00:05:34;;;;;;;;;;;9.20;99.90;;;;;;4860784;29;20010;-73
2023/01/08 00:07:59;;;;;;;;;;;9.20;99.90;;;;;;4860632;29;20301;-73
2023/01/08 00:10:25;;;;;;;;;;;9.20;99.90;;;;;;4860920;29;19928;-73
2023/01/08 00:12:50;;;;;;;;;;;9.20;99.90;;;;;;4844650;29;19924;-73
2023/01/08 00:15:16;;;;;;;;;;;9.20;99.90;;;;;;4856991;29;19991;-73
2023/01/08 00:17:41;;;;;;;;;;;9.20;99.90;;;;;;4860069;29;19935;-73
2023/01/08 00:20:07;;;;;;;;;;;9.20;99.90;;;;;;4837724;29;20278;-73
2023/01/08 00:22:33;;;;;;;;;;;9.10;99.90;;;;;;4859760;29;19923;-73
2023/01/08 00:24:58;;;;;;;;;;;9.10;99.90;;;;;;4845004;29;20065;-73
2023/01/08 00:27:24;;;;;;;;;;;9.10;99.90;;;;;;4845060;29;19924;-73
2023/01/08 00:29:49;;;;;;;;;;;9.10;99.90;;;;;;4829791;29;20460;-73
2023/01/08 00:32:15;;;;;;;;;;;9.10;99.90;;;;;;4844451;29;19924;-73
2023/01/08 00:34:41;;;;;;;;;;;9.10;99.90;;;;;;4844417;29;19928;-73
2023/01/08 00:37:06;;;;;;;;;;;9.10;99.90;;;;;;4847661;29;20655;-73
2023/01/08 00:39:32;;;;;;;;;;;9.10;99.90;;;;;;4860240;29;19928;-73
2023/01/08 00:41:57;;;;;;;;;;;9.00;99.90;;;;;;4859592;29;19934;-73
2023/01/08 00:44:23;;;;;;;;;;;8.90;99.90;;;;;;4859582;29;19928;-73
2023/01/08 00:46:48;;;;;;;;;;;8.90;99.90;;;;;;4860271;29;19935;-73
2023/01/08 00:49:14;;;;;;;;;;;8.90;99.90;;;;;;4846994;29;19924;-73
2023/01/08 00:51:39;;;;;;;;;;;8.90;99.90;;;;;;4840239;29;19931;-73
2023/01/08 00:54:05;;;;;;;;;;;8.90;99.90;;;;;;4824625;29;20007;-73
2023/01/08 00:56:31;;;;;;;;;;;8.90;99.90;;;;;;4840138;29;19928;-73
2023/01/08 00:58:57;;;;;;;;;;;8.80;99.90;;;;;;4859864;29;20286;-73
2023/01/08 01:01:22;;;;;;;;;;;8.80;99.90;;;;;;4851910;29;19924;-73
2023/01/08 01:03:48;;;;;;;;;;;8.80;99.90;;;;;;4861457;29;19934;-73
2023/01/08 01:06:13;;;;;;;;;;;8.70;99.90;;;;;;4847907;29;19928;-73
2023/01/08 01:08:40;;;;;;;;;;;8.70;99.90;;;;;;4835941;29;19981;-73
2023/01/08 01:11:22;;;;;;;;;;;8.60;99.90;;;;;;4855479;29;20164;-73
2023/01/08 01:13:48;;;;;;;;;;;8.50;99.90;;;;;;4863121;29;20125;-73
2023/01/08 01:16:14;;;;;;;;;;;8.50;99.90;;;;;;4848448;29;20487;-73
2023/01/08 01:18:40;;;;;;;;;;;8.50;99.90;;;;;;4863480;29;19924;-73
2023/01/08 01:21:10;;;;;;;;;;;8.40;99.90;;;;;;4860240;29;19928;-73
2023/01/08 01:23:35;;;;;;;;;;;8.40;99.90;;;;;;4863263;29;19978;-73
2023/01/08 01:26:01;;;;;;;;;;;8.30;99.90;;;;;;4863545;29;20476;-73
2023/01/08 01:28:26;;;;;;;;;;;8.30;99.90;;;;;;4847316;29;19934;-73
2023/01/08 01:30:53;;;;;;;;;;;8.30;99.90;;;;;;4832248;29;19924;-73
2023/01/08 01:33:19;;;;;;;;;;;8.30;99.90;;;;;;4847377;29;19928;-73
2023/01/08 01:35:44;;;;;;;;;;;8.30;99.90;;;;;;4847841;29;19928;-73
2023/01/08 01:38:10;;;;;;;;;;;8.30;99.90;;;;;;4863092;29;19924;-73
2023/01/08 01:40:40;;;;;;;;;;;8.20;99.90;;;;;;4847863;29;19924;-73
2023/01/08 01:43:09;;;;;;;;;;;8.20;99.90;;;;;;4862135;29;19923;-73
2023/01/08 01:45:35;;;;;;;;;;;8.20;99.90;;;;;;4847601;29;19928;-73
2023/01/08 01:48:05;;;;;;;;;;;8.10;99.90;;;;;;4862465;29;20036;-73
2023/01/08 01:50:35;;;;;;;;;;;8.00;99.90;;;;;;4857248;29;19996;-73
2023/01/08 01:53:06;;;;;;;;;;;8.00;99.90;;;;;;4877306;29;20377;-72
2023/01/08 01:55:32;;;;;;;;;;;7.90;99.90;;;;;;4880011;29;20329;-72
2023/01/08 01:58:11;;;;;;;;;;;7.90;99.90;;;;;;4847380;29;19930;-72
2023/01/08 02:00:37;;;;;;;;;;;7.80;99.90;;;;;;4847077;29;20377;-72
2023/01/08 02:03:04;;;;;;;;;;;7.80;99.90;;;;;;4850299;29;19955;-72
2023/01/08 02:05:35;;;;;;;;;;;7.70;99.90;;;;;;4860603;29;19988;-72
2023/01/08 02:08:06;;;;;;;;;;;7.70;99.90;;;;;;4860958;29;19923;-72
2023/01/08 02:10:38;;;;;;;;;;;7.60;99.90;;;;;;4857526;29;20407;-72
2023/01/08 02:13:07;;;;;;;;;;;7.60;99.90;;;;;;4838315;29;20022;-72
2023/01/08 02:15:38;;;;;;;;;;;7.60;99.90;;;;;;4842744;29;19928;-72
2023/01/08 02:18:04;;;;;;;;;;;7.60;99.90;;;;;;4856494;29;19934;-72
2023/01/08 02:20:38;;;;;;;;;;;7.60;99.90;;;;;;4887163;29;19924;-72
2023/01/08 02:23:21;;;;;;;;;;;7.50;99.90;;;;;;4858115;29;19924;-72
2023/01/08 02:25:53;;;;;;;;;;;7.50;99.90;;;;;;4861897;29;19923;-73
2023/01/08 02:28:20;;;;;;;;;;;7.40;99.90;;;;;;4846707;29;19931;-73
2023/01/08 02:30:46;;;;;;;;;;;7.40;99.90;;;;;;4846501;29;19928;-73
2023/01/08 02:33:12;;;;;;;;;;;7.40;99.90;;;;;;4860144;29;19931;-73
2023/01/08 02:35:39;;;;;;;;;;;7.40;99.90;;;;;;4846329;29;19936;-73
2023/01/08 02:38:05;;;;;;;;;;;7.40;99.90;;;;;;4859355;29;19924;-72
2023/01/08 02:40:44;;;;;;;;;;;7.40;99.90;;;;;;4859024;29;19974;-73
2023/01/08 02:43:12;;;;;;;;;;;7.30;99.90;;;;;;4847006;29;19928;-73
2023/01/08 02:45:49;;;;;;;;;;;7.30;99.90;;;;;;4861704;29;20039;-73
2023/01/08 02:48:27;;;;;;;;;;;7.30;99.90;;;;;;4859845;29;19923;-73
2023/01/08 02:51:02;;;;;;;;;;;7.30;99.90;;;;;;4844857;29;19927;-73
2023/01/08 02:53:30;;;;;;;;;;;7.20;99.90;;;;;;4852462;29;19927;-73
2023/01/08 02:56:25;;;;;;;;;;;7.20;99.90;;;;;;4860610;29;19924;-73
2023/01/08 02:58:51;;;;;;;;;;;7.20;99.90;;;;;;4846105;29;19924;-73
2023/01/08 03:01:18;;;;;;;;;;;7.20;99.90;;;;;;4846236;29;19924;-73
2023/01/08 03:04:03;;;;;;;;;;;7.10;99.90;;;;;;4860649;29;19924;-73
2023/01/08 03:06:29;;;;;;;;;;;7.10;99.90;;;;;;4846210;29;19927;-73
2023/01/08 03:08:55;;;;;;;;;;;7.10;99.90;;;;;;4843184;29;19928;-73
2023/01/08 03:11:21;;;;;;;;;;;7.10;99.90;;;;;;4867573;29;19928;-73
2023/01/08 03:13:56;;;;;;;;;;;7.10;99.90;;;;;;4845648;29;19990;-73
2023/01/08 03:16:29;;;;;;;;;;;7.10;99.90;;;;;;4845482;29;19931;-73
2023/01/08 03:19:17;;;;;;;;;;;7.00;99.90;;;;;;4846880;29;20426;-73
2023/01/08 03:21:43;;;;;;;;;;;7.00;99.90;;;;;;4858018;29;19987;-72
2023/01/08 03:24:11;;;;;;;;;;;7.00;99.90;;;;;;4853618;29;19927;-72
2023/01/08 03:26:37;;;;;;;;;;;6.90;99.90;;;;;;4861868;29;19936;-72
2023/01/08 03:29:03;;;;;;;;;;;6.90;99.90;;;;;;4846607;29;20305;-72
2023/01/08 03:31:33;;;;;;;;;;;6.90;99.90;;;;;;4861136;29;19928;-72
2023/01/08 03:34:00;;;;;;;;;;;6.90;99.90;;;;;;4861479;29;20234;-72
2023/01/08 03:36:26;;;;;;;;;;;6.90;99.90;;;;;;4859603;29;19931;-72
2023/01/08 03:38:56;;;;;;;;;;;6.80;99.90;;;;;;4851593;29;19931;-72
2023/01/08 03:41:23;;;;;;;;;;;6.80;99.90;;;;;;4860261;29;19962;-72
2023/01/08 03:43:49;;;;;;;;;;;6.80;99.90;;;;;;4859399;29;19931;-72
2023/01/08 03:46:22;;;;;;;;;;;6.80;99.90;;;;;;4861674;29;19924;-72
2023/01/08 03:48:48;;;;;;;;;;;6.80;99.90;;;;;;4846141;29;20379;-72
2023/01/08 03:51:14;;;;;;;;;;;6.90;99.90;;;;;;4843725;29;19985;-73
2023/01/08 03:53:39;;;;;;;;;;;6.90;99.90;;;;;;4859085;29;19923;-73
2023/01/08 03:56:05;;;;;;;;;;;6.90;99.90;;;;;;4861168;29;19947;-73
2023/01/08 03:58:31;;;;;;;;;;;6.90;99.90;;;;;;4844849;29;19928;-73
2023/01/08 04:00:56;;;;;;;;;;;6.90;99.90;;;;;;4844290;29;19939;-73
2023/01/08 04:03:23;;;;;;;;;;;6.90;99.90;;;;;;4860041;29;20019;-72
2023/01/08 04:05:49;;;;;;;;;;;6.90;99.90;;;;;;4858899;29;20450;-72
2023/01/08 04:08:14;;;;;;;;;;;6.80;99.90;;;;;;4859003;29;20006;-72
2023/01/08 04:10:40;;;;;;;;;;;6.80;99.90;;;;;;4860925;29;19928;-72
2023/01/08 04:13:06;;;;;;;;;;;6.80;99.90;;;;;;4860778;29;20490;-73
2023/01/08 04:15:31;;;;;;;;;;;6.80;99.90;;;;;;4860628;29;19932;-73
2023/01/08 04:17:57;;;;;;;;;;;6.80;99.90;;;;;;4843131;29;19930;-73
2023/01/08 04:20:23;;;;;;;;;;;6.80;99.90;;;;;;4861141;29;20374;-73
2023/01/08 04:22:48;;;;;;;;;;;6.80;99.90;;;;;;4860822;29;19938;-73
2023/01/08 04:25:14;;;;;;;;;;;6.80;99.90;;;;;;4858578;29;20396;-73
2023/01/08 04:27:39;;;;;;;;;;;6.80;99.90;;;;;;4854834;29;19930;-73
2023/01/08 04:30:05;;;;;;;;;;;6.80;99.90;;;;;;4829979;29;19923;-73
2023/01/08 04:32:31;;;;;;;;;;;6.80;99.90;;;;;;4857627;29;20058;-73
2023/01/08 04:34:56;;;;;;;;;;;6.80;99.90;;;;;;4845103;29;19975;-72
2023/01/08 04:37:22;;;;;;;;;;;6.80;99.90;;;;;;4859175;29;20381;-72
2023/01/08 04:39:47;;;;;;;;;;;6.80;99.90;;;;;;4847577;29;20436;-72
2023/01/08 04:42:13;;;;;;;;;;;6.80;99.90;;;;;;4864133;29;19923;-73
2023/01/08 04:44:39;;;;;;;;;;;6.80;99.90;;;;;;4864610;29;19951;-73
2023/01/08 04:47:04;;;;;;;;;;;6.80;99.90;;;;;;4863504;29;20031;-73
2023/01/08 04:49:30;;;;;;;;;;;6.80;99.90;;;;;;4864671;29;19924;-73
2023/01/08 04:51:55;;;;;;;;;;;6.90;99.90;;;;;;4862910;29;19924;-73
2023/01/08 04:54:21;;;;;;;;;;;6.80;99.90;;;;;;4858471;29;19932;-73
2023/01/08 04:56:49;;;;;;;;;;;6.90;99.90;;;;;;4848785;29;19976;-73
2023/01/08 04:59:14;;;;;;;;;;;6.90;99.90;;;;;;4863759;29;19931;-73
2023/01/08 05:01:40;;;;;;;;;;;6.80;99.90;;;;;;4848061;29;20011;-73
2023/01/08 05:04:05;;;;;;;;;;;6.80;99.90;;;;;;4855742;29;19939;-73
2023/01/08 05:06:31;;;;;;;;;;;6.80;99.90;;;;;;4832383;29;19927;-73
2023/01/08 05:08:57;;;;;;;;;;;6.90;99.90;;;;;;4858938;29;19980;-73
2023/01/08 05:11:23;;;;;;;;;;;6.90;99.90;;;;;;4855152;29;19935;-73
2023/01/08 05:13:51;;;;;;;;;;;6.90;99.90;;;;;;4845207;29;20517;-73
2023/01/08 05:16:17;;;;;;;;;;;6.80;99.90;;;;;;4842140;29;20130;-73
2023/01/08 05:18:43;;;;;;;;;;;6.80;99.90;;;;;;4849513;29;20018;-73
2023/01/08 05:21:09;;;;;;;;;;;6.80;99.90;;;;;;4847916;29;19931;-73
2023/01/08 05:23:34;;;;;;;;;;;6.70;99.90;;;;;;4847522;29;19935;-73
2023/01/08 05:26:02;;;;;;;;;;;6.60;99.90;;;;;;4832638;29;20297;-73
2023/01/08 05:28:27;;;;;;;;;;;6.60;99.90;;;;;;4861870;29;19974;-73
2023/01/08 05:30:53;;;;;;;;;;;6.50;99.90;;;;;;4863657;29;20389;-73
2023/01/08 05:33:19;;;;;;;;;;;6.50;99.90;;;;;;4863500;29;19931;-73
2023/01/08 05:35:45;;;;;;;;;;;6.40;99.90;;;;;;4862551;29;19938;-73
2023/01/08 05:38:10;;;;;;;;;;;6.40;99.90;;;;;;4862959;29;19930;-73
2023/01/08 05:40:36;;;;;;;;;;;6.40;99.90;;;;;;4863045;29;19931;-73
2023/01/08 05:43:04;;;;;;;;;;;6.40;99.90;;;;;;4863365;29;19962;-73
2023/01/08 05:45:30;;;;;;;;;;;6.40;99.90;;;;;;4833414;29;20312;-73
2023/01/08 05:47:55;;;;;;;;;;;6.40;99.90;;;;;;4862851;29;19924;-73
2023/01/08 05:50:21;;;;;;;;;;;6.30;99.90;;;;;;4863262;29;19976;-73
2023/01/08 05:52:47;;;;;;;;;;;6.30;99.90;;;;;;4848055;29;19967;-73
2023/01/08 05:55:12;;;;;;;;;;;6.30;99.90;;;;;;4862022;29;19931;-73
2023/01/08 05:57:38;;;;;;;;;;;6.20;99.90;;;;;;4862771;29;19983;-73
2023/01/08 06:00:04;;;;;;;;;;;6.20;99.90;;;;;;4846779;29;19924;-73
2023/01/08 06:02:30;;;;;;;;;;;6.20;99.90;;;;;;4847090;29;19931;-73
2023/01/08 06:04:55;;;;;;;;;;;6.30;99.90;;;;;;4863496;29;20317;-73
2023/01/08 06:07:21;;;;;;;;;;;6.30;99.90;;;;;;4846830;29;19932;-73
2023/01/08 06:09:46;;;;;;;;;;;6.30;99.90;;;;;;4863364;29;19928;-73
2023/01/08 06:12:12;;;;;;;;;;;6.30;99.90;;;;;;4860386;29;19931;-73
2023/01/08 06:14:37;;;;;;;;;;;6.30;99.90;;;;;;4846801;29;20400;-73
2023/01/08 06:17:03;;;;;;;;;;;6.30;99.90;;;;;;4862885;29;19923;-73
2023/01/08 06:19:29;;;;;;;;;;;6.40;99.90;;;;;;4850844;29;19935;-73
2023/01/08 06:21:55;;;;;;;;;;;6.40;99.90;;;;;;4862147;29;19966;-73
2023/01/08 06:24:20;;;;;;;;;;;6.40;99.90;;;;;;4864028;29;19936;-73
2023/01/08 06:26:46;;;;;;;;;;;6.30;99.90;;;;;;4863195;29;19999;-73
2023/01/08 06:29:11;;;;;;;;;;;6.30;99.90;;;;;;4846306;29;19928;-73
2023/01/08 06:31:37;;;;;;;;;;;6.30;99.90;;;;;;4845243;29;20428;-74
2023/01/08 06:34:02;;;;;;;;;;;6.30;99.90;;;;;;4862054;29;19928;-73
2023/01/08 06:36:28;;;;;;;;;;;6.30;99.90;;;;;;4862342;29;19938;-73
2023/01/08 06:38:54;;;;;;;;;;;6.30;99.90;;;;;;4860128;29;20365;-73
2023/01/08 06:41:20;;;;;;;;;;;6.30;99.90;;;;;;4865404;29;20003;-73
2023/01/08 06:43:46;;;;;;;;;;;6.30;99.90;;;;;;4861581;29;20011;-73
2023/01/08 06:46:11;;;;;;;;;;;6.30;99.90;;;;;;4847175;29;19932;-73
2023/01/08 06:48:37;;;;;;;;;;;6.20;99.90;;;;;;4854278;29;19938;-73
2023/01/08 06:51:03;;;;;;;;;;;6.20;99.90;;;;;;4878920;29;20384;-73
2023/01/08 06:53:29;;;;;;;;;;;6.20;99.90;;;;;;4852549;29;19975;-73
2023/01/08 06:55:57;;;;;;;;;;;6.20;99.90;;;;;;4857833;29;19928;-73
2023/01/08 06:58:24;;;;;;;;;;;6.20;99.90;;;;;;4861181;29;19928;-73
2023/01/08 07:00:49;;;;;;;;;;;6.20;99.90;;;;;;4844235;29;19928;-73
2023/01/08 07:03:15;;;;;;;;;;;6.20;99.90;;;;;;4845507;29;20296;-73
2023/01/08 07:05:41;;;;;;;;;;;6.20;99.90;;;;;;4875416;29;20456;-73
2023/01/08 07:08:13;;;;;;;;;;;6.20;99.90;;;;;;4846333;29;19931;-72
2023/01/08 07:10:39;;;;;;;;;;;6.20;99.90;;;;;;4860900;29;19927;-73
2023/01/08 07:13:06;;;;;;;;;;;6.20;99.90;;;;;;4860633;29;19924;-73
2023/01/08 07:15:32;;;;;;;;;;;6.20;99.90;;;;;;4861503;29;20318;-73
2023/01/08 07:17:58;;;;;;;;;;;6.20;99.90;;;;;;4860151;29;19989;-73
2023/01/08 07:20:23;;;;;;;;;;;6.10;99.90;;;;;;4845743;29;19927;-73
2023/01/08 07:22:49;;;;;;;;;;;6.10;99.90;;;;;;4843674;29;19932;-73
2023/01/08 07:25:14;;;;;;;;;;;6.00;99.90;;;;;;4831030;29;20448;-73
2023/01/08 07:27:40;;;;;;;;;;;5.90;99.90;;;;;;4844116;29;19930;-73
2023/01/08 07:30:09;;;;;;;;;;;5.90;99.90;;;;;;4860589;29;20007;-73
2023/01/08 07:32:34;;;;;;;;;;;5.80;99.90;;;;;;4844837;29;20006;-73
2023/01/08 07:35:00;;;;;;;;;;;5.70;99.90;;;;;;4857223;29;20014;-72
2023/01/08 07:37:26;;;;;;;;;;;5.70;99.90;;;;;;4830584;29;19988;-72
2023/01/08 07:39:52;;;;;;;;;;;5.70;99.90;;;;;;4844959;29;20337;-72
2023/01/08 07:42:18;;;;;;;;;;;5.60;99.90;;;;;;4860404;29;19935;-72
2023/01/08 07:44:43;;;;;;;;;;;5.60;99.90;;;;;;4858733;29;20380;-72
2023/01/08 07:47:09;;;;;;;;;;;5.60;99.90;;;;;;4860170;29;19928;-72
2023/01/08 07:49:35;;;;;;;;;;;5.60;99.90;;;;;;4840544;29;19931;-72
2023/01/08 07:52:00;;;;;;;;;;;5.70;99.90;;;;;;4855646;29;19931;-72
2023/01/08 07:54:26;;;;;;;;;;;5.60;99.90;;;;;;4830475;29;20495;-72
2023/01/08 07:56:54;;;;;;;;;;;5.60;99.90;;;;;;4842834;29;19924;-72
2023/01/08 07:59:20;;;;;;;;;;;5.60;99.90;;;;;;4834481;29;19963;-72
2023/01/08 08:01:46;;;;;;;;;;;5.60;99.90;;;;;;4843709;29;20317;-72
2023/01/08 08:04:13;;;;;;;;;;;5.60;99.90;;;;;;4840406;29;19938;-72
2023/01/08 08:06:39;;;;;;;;;;;5.60;99.90;;;;;;4852684;29;19928;-72
2023/01/08 08:09:04;;;;;;;;;;;5.60;99.90;;;;;;4840236;29;19924;-72
2023/01/08 08:11:30;;;;;;;;;;;5.60;99.90;;;;;;4838848;29;20018;-72
2023/01/08 08:13:58;;;;;;;;;;;5.60;99.90;;;;;;4851197;29;22598;-72
2023/01/08 08:16:23;;;;;;;;;;;5.60;99.90;;;;;;4866889;29;19975;-72
2023/01/08 08:18:49;;;;;;;;;;;5.60;99.90;;;;;;4863274;29;19935;-72
2023/01/08 08:21:14;;;;;;;;;;;5.60;99.90;;;;;;4844261;29;20262;-73
2023/01/08 08:23:40;;;;;;;;;;;5.50;99.90;;;;;;4860765;29;19924;-73
2023/01/08 08:26:06;;;;;;;;;;;5.50;99.90;;;;;;4832411;29;19924;-72
2023/01/08 08:28:32;;;;;;;;;;;5.50;99.90;;;;;;4837806;29;19935;-72
2023/01/08 08:30:58;;;;;;;;;;;5.60;99.90;;;;;;4861426;29;19932;-72
2023/01/08 08:33:23;;;;;;;;;;;5.60;99.90;;;;;;4861593;29;19943;-72
2023/01/08 08:35:52;;;;;;;;;;;5.70;99.90;;;;;;4864049;29;19928;-72
2023/01/08 08:38:17;;;;;;;;;;;5.80;99.90;;;;;;4834074;29;20018;-72
2023/01/08 08:40:44;;;;;;;;;;;5.90;99.90;;;;;;4849429;29;19971;-72
2023/01/08 08:43:09;;;;;;;;;;;6.00;99.90;;;;;;4867603;29;20441;-73
2023/01/08 08:45:36;;;;;;;;;;;6.10;99.90;;;;;;4849807;29;19928;-73
2023/01/08 08:48:03;;;;;;;;;;;6.00;99.90;;;;;;4864973;29;20280;-73
2023/01/08 08:50:29;;;;;;;;;;;6.00;99.90;;;;;;4862391;29;20364;-73
2023/01/08 08:53:01;;;;;;;;;;;6.10;99.90;;;;;;4864723;29;19931;-73
2023/01/08 08:55:27;;;;;;;;;;;6.30;99.90;;;;;;4844974;29;19928;-73
2023/01/08 08:57:53;;;;;;;;;;;6.40;99.90;;;;;;4849913;29;19927;-73
2023/01/08 09:00:19;;;;;;;;;;;6.40;99.90;;;;;;4878128;29;19930;-73
2023/01/08 09:02:44;;;;;;;;;;;6.40;99.90;;;;;;4831124;29;19932;-73
2023/01/08 09:05:10;;;;;;;;;;;6.40;99.90;;;;;;4860696;29;19928;-73
2023/01/08 09:07:36;;;;;;;;;;;6.40;99.90;;;;;;4862836;29;19971;-73
2023/01/08 09:10:02;;;;;;;;;;;6.40;99.90;;;;;;4882272;29;20424;-73
2023/01/08 09:12:28;;;;;;;;;;;6.30;99.90;;;;;;4864749;29;19935;-73
2023/01/08 09:14:55;;;;;;;;;;;6.30;99.90;;;;;;4861635;29;20396;-73
2023/01/08 09:17:27;;;;;;;;;;;6.30;99.90;;;;;;4864925;29;19978;-73
2023/01/08 09:19:52;;;;;;;;;;;6.30;99.90;;;;;;4846892;29;20449;-73
2023/01/08 09:22:18;;;;;;;;;;;6.30;99.90;;;;;;4849334;29;20026;-74
2023/01/08 09:24:45;;;;;;;;;;;6.30;99.90;;;;;;4870240;29;20292;-73
2023/01/08 09:27:10;;;;;;;;;;;6.30;99.90;;;;;;4850339;29;19991;-73
2023/01/08 09:29:36;;;;;;;;;;;6.30;99.90;;;;;;4863818;29;19967;-73
2023/01/08 09:32:06;;;;;;;;;;;6.40;99.90;;;;;;4863987;29;20321;-73
2023/01/08 09:34:31;;;;;;;;;;;6.40;99.90;;;;;;4864787;29;19976;-74
2023/01/08 09:37:03;;;;;;;;;;;6.40;99.90;;;;;;4831673;29;19924;-73
2023/01/08 09:39:29;;;;;;;;;;;6.50;99.90;;;;;;4848026;29;20010;-73
2023/01/08 09:42:02;;;;;;;;;;;6.50;99.90;;;;;;4863772;29;19924;-73
2023/01/08 09:44:29;;;;;;;;;;;6.60;99.90;;;;;;4849215;29;19930;-73
2023/01/08 09:46:55;;;;;;;;;;;6.60;99.90;;;;;;4862387;29;19989;-73
2023/01/08 09:49:34;;;;;;;;;;;6.60;99.90;;;;;;4848274;29;19934;-73
2023/01/08 09:52:03;;;;;;;;;;;6.70;99.90;;;;;;4847572;29;20389;-72
2023/01/08 09:54:28;;;;;;;;;;;6.70;99.90;;;;;;4861453;29;20023;-72
2023/01/08 09:56:54;;;;;;;;;;;6.80;99.90;;;;;;4858814;29;20402;-72
2023/01/08 09:59:20;;;;;;;;;;;6.80;99.90;;;;;;4847581;29;20031;-72
2023/01/08 10:01:45;;;;;;;;;;;6.80;99.90;;;;;;4861392;29;20300;-73
2023/01/08 10:04:21;;;;;;;;;;;6.90;99.90;;;;;;4870694;29;19980;-73
2023/01/08 10:06:49;;;;;;;;;;;6.90;99.90;;;;;;4836156;29;19935;-73
2023/01/08 10:09:15;;;;;;;;;;;6.90;99.90;;;;;;4861925;29;19928;-73
2023/01/08 10:11:42;;;;;;;;;;;7.00;99.90;;;;;;4860810;29;20403;-73
2023/01/08 10:14:17;;;;;;;;;;;7.10;99.90;;;;;;4861768;29;20518;-72
2023/01/08 10:16:46;;;;;;;;;;;7.10;99.90;;;;;;4844444;29;19931;-72
2023/01/08 10:19:11;;;;;;;;;;;7.20;99.90;;;;;;4859149;29;19930;-72
2023/01/08 10:21:39;;;;;;;;;;;7.20;99.90;;;;;;4859972;29;19927;-72
2023/01/08 10:24:05;;;;;;;;;;;7.20;99.90;;;;;;4860129;29;19931;-72
2023/01/08 10:26:32;;;;;;;;;;;7.20;99.90;;;;;;4845754;29;20014;-72
2023/01/08 10:29:14;;;;;;;;;;;7.20;99.90;;;;;;4857481;29;19971;-72
2023/01/08 10:31:50;;;;;;;;;;;7.20;99.90;;;;;;4856399;29;20387;-72
2023/01/08 10:34:36;;;;;;;;;;;7.20;99.90;;;;;;4860017;29;19958;-72
2023/01/08 10:37:12;;;;;;;;;;;7.20;99.90;;;;;;4847167;29;19928;-72
2023/01/08 10:39:38;;;;;;;;;;;7.20;99.90;;;;;;4845463;29;19931;-72
2023/01/08 10:42:05;;;;;;;;;;;7.30;99.90;;;;;;4845456;29;19923;-72
2023/01/08 10:44:31;;;;;;;;;;;7.30;99.90;;;;;;4864703;29;19927;-73
2023/01/08 10:46:59;;;;;;;;;;;7.30;99.90;;;;;;4861065;29;20363;-73
2023/01/08 10:49:38;;;;;;;;;;;7.40;99.90;;;;;;4845911;29;19935;-73
2023/01/08 10:52:04;;;;;;;;;;;7.40;99.90;;;;;;4856798;29;19930;-73
2023/01/08 10:54:35;;;;;;;;;;;7.40;99.90;;;;;;4858792;29;20440;-73
2023/01/08 10:57:01;;;;;;;;;;;7.40;99.90;;;;;;4846617;29;19981;-73
2023/01/08 10:59:27;;;;;;;;;;;7.50;99.90;;;;;;4858613;29;20396;-72
2023/01/08 11:01:57;;;;;;;;;;;7.50;99.90;;;;;;4840292;29;19927;-72
2023/01/08 11:04:33;;;;;;;;;;;7.50;99.90;;;;;;4849991;29;20496;-72
2023/01/08 11:07:01;;;;;;;;;;;7.60;99.90;;;;;;4859144;29;19939;-72
2023/01/08 11:09:28;;;;;;;;;;;7.60;99.90;;;;;;4859360;29;19928;-73
2023/01/08 11:11:54;;;;;;;;;;;7.60;99.90;;;;;;4845750;29;19924;-72
2023/01/08 11:14:22;;;;;;;;;;;7.70;99.90;;;;;;4859829;29;19958;-72
2023/01/08 11:16:49;;;;;;;;;;;7.70;99.90;;;;;;4862102;29;19927;-73
2023/01/08 11:19:15;;;;;;;;;;;7.80;99.90;;;;;;4876554;29;19924;-72
2023/01/08 11:21:41;;;;;;;;;;;7.80;99.90;;;;;;4858889;29;19974;-72
2023/01/08 11:24:11;;;;;;;;;;;7.80;99.90;;;;;;4830048;29;19928;-72
2023/01/08 11:26:39;;;;;;;;;;;7.80;99.90;;;;;;4859869;29;19946;-72
2023/01/08 11:29:06;;;;;;;;;;;7.90;99.90;;;;;;4859689;29;20338;-73
2023/01/08 11:31:39;;;;;;;;;;;7.90;99.90;;;;;;4855371;29;19939;-72
2023/01/08 11:34:09;;;;;;;;;;;8.00;99.90;;;;;;4861609;29;19975;-72
2023/01/08 11:36:40;;;;;;;;;;;8.00;99.90;;;;;;4854773;29;19968;-72
2023/01/08 11:39:07;;;;;;;;;;;8.00;99.90;;;;;;4861037;29;19930;-73
2023/01/08 11:41:36;;;;;;;;;;;8.00;99.90;;;;;;4851618;29;20046;-72
2023/01/08 11:44:20;;;;;;;;;;;8.00;99.90;;;;;;4857126;29;19928;-73
2023/01/08 11:46:51;;;;;;;;;;;8.10;99.90;;;;;;4860447;29;19952;-73
2023/01/08 11:49:35;;;;;;;;;;;8.10;99.90;;;;;;4861082;29;19967;-73
2023/01/08 11:52:01;;;;;;;;;;;8.10;99.90;;;;;;4853919;29;19924;-73
2023/01/08 11:54:43;;;;;;;;;;;8.10;99.90;;;;;;4863123;29;19934;-72
2023/01/08 11:57:27;;;;;;;;;;;8.10;99.90;;;;;;4877628;29;20337;-73
2023/01/08 12:00:02;;;;;;;;;;;8.10;99.90;;;;;;4878568;29;19928;-73
2023/01/08 12:02:47;;;;;;;;;;;8.20;99.90;;;;;;4864792;29;19928;-72
2023/01/08 12:05:40;;;;;;;;;;;8.20;99.90;;;;;;4867367;29;19962;-72
2023/01/08 12:08:06;;;;;;;;;;;8.10;99.90;;;;;;4847592;29;20015;-72
2023/01/08 12:10:31;;;;;;;;;;;8.10;99.90;;;;;;4847648;29;20877;-72
2023/01/08 12:13:13;;;;;;;;;;;8.20;99.90;;;;;;4863351;29;19935;-72
2023/01/08 12:15:45;;;;;;;;;;;8.10;99.90;;;;;;4855978;29;19928;-72
2023/01/08 12:18:14;;;;;;;;;;;8.20;99.90;;;;;;4861370;29;19923;-73
2023/01/08 12:21:00;;;;;;;;;;;8.30;99.90;;;;;;4860459;29;20079;-73
2023/01/08 12:23:41;;;;;;;;;;;8.40;99.90;;;;;;4827220;29;19930;-72
2023/01/08 12:26:12;;;;;;;;;;;8.40;99.90;;;;;;4877945;29;19964;-72
2023/01/08 12:28:44;;;;;;;;;;;8.40;99.90;;;;;;4875056;29;19939;-73
2023/01/08 12:31:29;;;;;;;;;;;8.40;99.90;;;;;;4858207;29;19924;-73
2023/01/08 12:34:04;;;;;;;;;;;8.40;99.90;;;;;;4858184;29;20323;-73
2023/01/08 12:36:34;;;;;;;;;;;8.40;99.90;;;;;;4862920;29;20019;-73
2023/01/08 12:39:03;;;;;;;;;;;8.40;99.90;;;;;;4867260;29;20003;-73
2023/01/08 12:41:29;;;;;;;;;;;8.40;99.90;;;;;;4860256;29;20298;-73
2023/01/08 12:44:00;;;;;;;;;;;8.40;99.90;;;;;;4862815;29;19928;-73
2023/01/08 12:46:30;;;;;;;;;;;8.40;99.90;;;;;;4861798;29;19931;-74
2023/01/08 12:48:56;;;;;;;;;;;8.40;99.90;;;;;;4857259;29;19928;-73
2023/01/08 12:51:32;;;;;;;;;;;8.30;99.90;;;;;;4847180;29;20415;-73
2023/01/08 12:54:13;;;;;;;;;;;8.30;99.90;;;;;;4863289;29;19932;-73
2023/01/08 12:56:42;;;;;;;;;;;8.20;99.90;;;;;;4859850;29;19939;-73
2023/01/08 12:59:21;;;;;;;;;;;8.30;99.90;;;;;;4853280;29;19932;-72
2023/01/08 13:01:54;;;;;;;;;;;8.30;99.90;;;;;;4861274;29;19924;-72
2023/01/08 13:04:25;;;;;;;;;;;8.40;99.90;;;;;;4858825;29;20014;-73
2023/01/08 13:06:54;;;;;;;;;;;8.40;99.90;;;;;;4866715;29;19940;-73
2023/01/08 13:09:22;;;;;;;;;;;8.40;99.90;;;;;;4865218;29;19948;-72
2023/01/08 13:11:51;;;;;;;;;;;8.50;99.90;;;;;;4859359;29;19992;-73
2023/01/08 13:14:17;;;;;;;;;;;8.50;99.90;;;;;;4851778;29;20486;-73
2023/01/08 13:16:46;;;;;;;;;;;8.50;99.90;;;;;;4851012;29;19995;-73
2023/01/08 13:19:41;;;;;;;;;;;8.60;99.90;;;;;;4863147;29;19938;-73
2023/01/08 13:22:45;;;;;;;;;;;8.60;99.90;;;;;;4849769;29;19924;-73
2023/01/08 13:25:14;;;;;;;;;;;8.50;99.90;;;;;;4802401;29;19925;-74
2023/01/08 13:27:40;;;;;;;;;;;8.30;99.90;;;;;;4789785;29;19978;-73
2023/01/08 13:30:24;;;;;;;;;;;8.30;99.90;;;;;;4825701;29;19924;-72
2023/01/08 13:32:50;;;;;;;;;;;8.30;99.90;;;;;;4862690;29;20049;-74
2023/01/08 13:35:16;;;;;;;;;;;8.30;99.90;;;;;;4847401;29;20408;-73
2023/01/08 13:37:49;;;;;;;;;;;8.40;99.90;;;;;;4865177;29;20002;-73
2023/01/08 13:40:34;;;;;;;;;;;8.40;99.90;;;;;;4864021;29;19962;-73
2023/01/08 13:43:00;;;;;;;;;;;8.40;99.90;;;;;;4854639;29;19924;-73
2023/01/08 13:45:28;;;;;;;;;;;8.50;99.90;;;;;;4864269;29;20015;-73
2023/01/08 13:47:54;;;;;;;;;;;8.50;99.90;;;;;;4858156;29;19951;-73
2023/01/08 13:50:22;;;;;;;;;;;8.50;99.90;;;;;;4861225;29;19935;-72
2023/01/08 13:52:55;;;;;;;;;;;8.60;99.90;;;;;;4860111;29;19932;-73
2023/01/08 13:55:27;;;;;;;;;;;8.60;99.90;;;;;;4846303;29;20579;-72
2023/01/08 13:57:56;;;;;;;;;;;8.60;99.90;;;;;;4877052;29;19923;-73
2023/01/08 14:00:25;;;;;;;;;;;8.70;99.90;;;;;;4859369;29;20526;-72
2023/01/08 14:02:50;;;;;;;;;;;8.70;99.90;;;;;;4863377;29;19924;-73
2023/01/08 14:05:19;;;;;;;;;;;8.60;99.90;;;;;;4863754;29;20822;-72
2023/01/08 14:07:45;;;;;;;;;;;8.60;99.90;;;;;;4856626;29;19975;-72
2023/01/08 14:10:12;;;;;;;;;;;8.50;99.90;;;;;;4842651;29;20054;-73
2023/01/08 14:12:38;;;;;;;;;;;8.40;99.90;;;;;;4859605;29;19967;-73
2023/01/08 14:15:08;;;;;;;;;;;8.40;99.90;;;;;;4842927;29;19970;-73
2023/01/08 14:17:34;;;;;;;;;;;8.40;99.90;;;;;;4826680;29;20321;-73
2023/01/08 14:20:00;;;;;;;;;;;8.50;99.90;;;;;;4841065;29;19935;-73
2023/01/08 14:22:30;;;;;;;;;;;8.50;99.90;;;;;;4849982;29;20402;-73
2023/01/08 14:24:57;;;;;;;;;;;8.50;99.90;;;;;;4859856;29;20434;-73
2023/01/08 14:27:24;;;;;;;;;;;8.60;99.90;;;;;;4857820;29;20369;-73
2023/01/08 14:29:49;;;;;;;;;;;8.60;99.90;;;;;;4860077;29;20361;-73
2023/01/08 14:32:23;;;;;;;;;;;8.60;99.90;;;;;;4854738;29;19924;-73
2023/01/08 14:34:50;;;;;;;;;;;8.50;99.90;;;;;;4858980;29;19986;-73
2023/01/08 14:37:15;;;;;;;;;;;8.40;99.90;;;;;;4859892;29;19924;-74